Terminal Aerodrome Forecast
Issued by NWS Quad Cities IA IL

Home | Current Version | Previous Version | Text Only | Print | Product List | Glossary On
Versions: 1 2 3 4 5 6 7 8 9 10 11 12 13 14 15 16 17 18 19 20 21 22 23 24
000
FTUS43 KDVN 240500
TAFMLI
TAF
KMLI 240526Z 2406/2506 29010KT 3SM BR OVC002
     FM240700 31016G25KT 5SM -RA BR OVC004
     FM240900 29017G27KT 3SM -RASN BR OVC004
     FM241400 29017G26KT 1SM -SN BR OVC005
     FM241900 28020G30KT 5SM -SN BR OVC015
     FM242200 27015G25KT 6SM -SHSN OVC025=

USA.gov is the U.S. government's official web portal to all federal, state and local government web resources and services.